Time;durP1;ratioP1;P1;durP2;ratioP2;P2;SDS_P1;SDS_P2;PMS_P1;PMS_P2;Temp;Humidity;BMP_temperature;BMP_pressure;BME280_temperature;BME280_humidity;BME280_pressure;Samples;Min_cycle;Max_cycle;Signal;HPM_P1;HPM_P2
2022/06/27 00:02:24;;;;;;;6.15;5.25;;;23.00;99.90;;;;;;5013177;28;20557;-77
2022/06/27 00:04:55;;;;;;;6.00;5.00;;;22.90;99.90;;;;;;5029519;28;20048;-77
2022/06/27 00:07:22;;;;;;;7.13;5.70;;;22.90;99.90;;;;;;5029372;28;20050;-77
2022/06/27 00:09:51;;;;;;;7.20;5.10;;;22.90;99.90;;;;;;5030989;28;20057;-78
2022/06/27 00:12:18;;;;;;;6.32;5.35;;;22.90;99.90;;;;;;5029504;28;20115;-77
2022/06/27 00:14:46;;;;;;;5.97;5.25;;;22.80;99.90;;;;;;5029543;28;20592;-77
2022/06/27 00:17:13;;;;;;;6.20;5.65;;;22.80;99.90;;;;;;5029460;28;20072;-78
2022/06/27 00:19:40;;;;;;;8.27;5.78;;;22.80;99.90;;;;;;5030697;28;20520;-77
2022/06/27 00:22:08;;;;;;;6.68;5.70;;;22.80;99.90;;;;;;5029203;28;20514;-78
2022/06/27 00:24:35;;;;;;;6.82;5.90;;;22.70;99.90;;;;;;5031642;28;20133;-77
2022/06/27 00:27:04;;;;;;;6.95;5.95;;;22.70;99.90;;;;;;5034685;28;20049;-77
2022/06/27 00:29:32;;;;;;;6.75;6.13;;;22.70;99.90;;;;;;5033265;28;20080;-77
2022/06/27 00:31:59;;;;;;;6.88;6.38;;;22.70;99.90;;;;;;5017086;28;20536;-77
2022/06/27 00:34:27;;;;;;;11.48;6.82;;;22.70;99.90;;;;;;5033401;28;20502;-77
2022/06/27 00:36:54;;;;;;;7.20;6.45;;;22.60;99.90;;;;;;5034726;28;20111;-77
2022/06/27 00:39:21;;;;;;;7.32;6.65;;;22.60;99.90;;;;;;5033442;28;20085;-77
2022/06/27 00:41:49;;;;;;;9.68;6.35;;;22.70;99.90;;;;;;5032825;28;20053;-76
2022/06/27 00:44:32;;;;;;;11.93;6.90;;;22.70;99.90;;;;;;5016519;28;20033;-76
2022/06/27 00:46:59;;;;;;;9.55;6.68;;;22.70;99.90;;;;;;5033074;28;20084;-76
2022/06/27 00:49:26;;;;;;;7.53;6.25;;;22.70;99.90;;;;;;5033137;28;20111;-76
2022/06/27 00:51:54;;;;;;;8.00;7.25;;;22.60;99.90;;;;;;5032884;28;20046;-77
2022/06/27 00:54:22;;;;;;;7.57;6.22;;;22.60;99.90;;;;;;5034165;28;20144;-76
2022/06/27 00:56:50;;;;;;;8.32;6.90;;;22.60;99.90;;;;;;5034129;28;20053;-77
2022/06/27 00:59:18;;;;;;;7.28;6.57;;;22.60;99.90;;;;;;5034084;28;20081;-77
2022/06/27 01:01:46;;;;;;;9.95;7.07;;;22.60;99.90;;;;;;5016232;28;20041;-77
2022/06/27 01:04:14;;;;;;;8.73;6.28;;;22.60;99.90;;;;;;5032819;28;20421;-77
2022/06/27 01:06:41;;;;;;;7.05;6.35;;;22.60;99.90;;;;;;5016213;28;20050;-77
2022/06/27 01:09:09;;;;;;;7.38;6.35;;;22.60;99.90;;;;;;5016148;28;20433;-77
2022/06/27 01:11:36;;;;;;;7.97;6.30;;;22.60;99.90;;;;;;5032577;28;20053;-77
2022/06/27 01:14:04;;;;;;;7.93;6.55;;;22.50;99.90;;;;;;5033021;28;20077;-77
2022/06/27 01:16:31;;;;;;;10.50;6.78;;;22.60;99.90;;;;;;5033634;28;20053;-77
2022/06/27 01:19:02;;;;;;;6.45;5.93;;;22.60;99.90;;;;;;5015852;28;20045;-76
2022/06/27 01:21:34;;;;;;;7.50;6.30;;;22.50;99.90;;;;;;5032372;28;20077;-77
2022/06/27 01:24:03;;;;;;;9.32;7.30;;;22.50;99.90;;;;;;5016070;28;20054;-77
2022/06/27 01:26:30;;;;;;;9.90;6.53;;;22.50;99.90;;;;;;5015839;28;20045;-78
2022/06/27 01:28:58;;;;;;;7.30;6.60;;;22.50;99.90;;;;;;5015969;28;20140;-77
2022/06/27 01:31:27;;;;;;;6.60;6.10;;;22.60;99.90;;;;;;5015711;28;20057;-76
2022/06/27 01:33:55;;;;;;;7.70;6.68;;;22.60;99.90;;;;;;5032365;28;20417;-77
2022/06/27 01:39:10;;;;;;;7.22;6.72;;;22.50;99.90;;;;;;5015663;28;20414;-77
2022/06/27 01:41:38;;;;;;;7.70;7.00;;;22.50;99.90;;;;;;5032065;28;20140;-76
2022/06/27 01:44:05;;;;;;;7.60;6.90;;;22.50;99.90;;;;;;5032015;28;20136;-76
2022/06/27 01:46:41;;;;;;;7.88;6.20;;;22.50;99.90;;;;;;5015356;28;20045;-78
2022/06/27 01:49:10;;;;;;;7.78;6.05;;;22.60;99.90;;;;;;5015322;28;20513;-78
2022/06/27 01:51:38;;;;;;;8.35;7.65;;;22.60;99.90;;;;;;5015428;28;20041;-78
2022/06/27 01:54:07;;;;;;;7.95;7.32;;;22.60;99.90;;;;;;5032018;28;20369;-78
2022/06/27 01:56:36;;;;;;;8.93;7.78;;;22.60;99.90;;;;;;5031619;28;20156;-77
2022/06/27 01:59:04;;;;;;;10.00;7.53;;;22.60;99.90;;;;;;5031777;28;20045;-77
2022/06/27 02:01:32;;;;;;;9.18;7.70;;;22.60;99.90;;;;;;5031685;28;20119;-77
2022/06/27 02:04:00;;;;;;;11.88;7.72;;;22.60;99.90;;;;;;5031662;28;20042;-77
2022/06/27 02:06:29;;;;;;;9.85;7.13;;;22.60;99.90;;;;;;5031626;28;20506;-77
2022/06/27 02:08:58;;;;;;;8.43;7.68;;;22.60;99.90;;;;;;5033036;28;20057;-75
2022/06/27 02:11:26;;;;;;;8.88;7.60;;;22.60;99.90;;;;;;5031582;28;20124;-75
2022/06/27 02:13:56;;;;;;;7.78;6.97;;;22.60;99.90;;;;;;5031541;28;20108;-76
2022/06/27 02:16:44;;;;;;;7.85;6.43;;;22.70;99.90;;;;;;5017967;28;20056;-76
2022/06/27 02:19:13;;;;;;;8.57;6.95;;;22.70;99.90;;;;;;5031238;28;20049;-76
2022/06/27 02:21:42;;;;;;;7.40;6.25;;;22.70;99.90;;;;;;5031172;28;20049;-76
2022/06/27 02:24:11;;;;;;;9.65;7.03;;;22.80;99.90;;;;;;5014711;28;20079;-76
2022/06/27 02:26:39;;;;;;;7.78;6.57;;;22.70;99.90;;;;;;5031048;28;20144;-77
2022/06/27 02:29:08;;;;;;;7.03;6.38;;;22.80;99.90;;;;;;5014798;28;20064;-77
2022/06/27 02:31:45;;;;;;;7.50;6.82;;;22.80;99.90;;;;;;5032345;28;20054;-78
2022/06/27 02:34:13;;;;;;;7.55;6.70;;;22.80;99.90;;;;;;5014601;28;20111;-77
2022/06/27 02:36:42;;;;;;;6.95;6.25;;;22.80;99.90;;;;;;5030931;28;20049;-78
2022/06/27 02:39:12;;;;;;;7.50;6.40;;;22.80;99.90;;;;;;5032221;28;20049;-77
2022/06/27 02:41:41;;;;;;;7.57;6.28;;;22.80;99.90;;;;;;5032228;28;20076;-77
2022/06/27 02:44:11;;;;;;;9.27;6.35;;;22.80;99.90;;;;;;5030989;28;20092;-77
2022/06/27 02:46:39;;;;;;;6.70;6.18;;;22.90;99.90;;;;;;5032115;28;20057;-77
2022/06/27 02:49:08;;;;;;;9.23;6.53;;;22.90;99.90;;;;;;5030798;28;20521;-77
2022/06/27 02:51:42;;;;;;;7.30;6.65;;;22.90;99.90;;;;;;5030797;28;20053;-77
2022/06/27 02:54:16;;;;;;;8.35;6.22;;;22.90;99.90;;;;;;5030933;28;20076;-78
2022/06/27 02:57:02;;;;;;;7.65;6.72;;;22.90;99.90;;;;;;5030763;28;20061;-78
2022/06/27 02:59:35;;;;;;;9.80;6.43;;;22.90;99.90;;;;;;5030841;28;20049;-77
2022/06/27 03:02:03;;;;;;;15.70;6.45;;;23.00;99.90;;;;;;5031778;28;20401;-77
2022/06/27 03:04:54;;;;;;;8.65;6.63;;;23.00;99.90;;;;;;5031683;28;20046;-77
2022/06/27 03:07:21;;;;;;;6.22;5.72;;;23.00;99.90;;;;;;5032012;28;20505;-77
2022/06/27 03:09:49;;;;;;;9.80;6.40;;;23.00;99.90;;;;;;5030463;28;20164;-77
2022/06/27 03:12:17;;;;;;;11.88;6.28;;;23.10;99.90;;;;;;5030562;28;20049;-77
2022/06/27 03:14:46;;;;;;;6.22;5.53;;;23.10;99.90;;;;;;5013717;28;20052;-77
2022/06/27 03:17:13;;;;;;;7.10;6.15;;;23.10;99.90;;;;;;5030282;28;20137;-77
2022/06/27 03:20:05;;;;;;;6.55;6.00;;;23.10;99.90;;;;;;5030239;28;20509;-76
2022/06/27 03:22:44;;;;;;;7.30;5.78;;;23.10;99.90;;;;;;5030176;28;20052;-76
2022/06/27 03:25:12;;;;;;;11.68;6.03;;;23.20;99.90;;;;;;5030051;28;20070;-77
2022/06/27 03:27:40;;;;;;;11.60;6.10;;;23.20;99.90;;;;;;5029863;28;20132;-76
2022/06/27 03:30:10;;;;;;;6.50;5.90;;;23.20;99.90;;;;;;5030062;28;20049;-77
2022/06/27 03:32:39;;;;;;;6.25;5.75;;;23.20;99.90;;;;;;5013921;28;20053;-78
2022/06/27 03:35:10;;;;;;;8.40;6.00;;;23.30;99.90;;;;;;5013692;28;20056;-78
2022/06/27 03:37:38;;;;;;;6.55;5.13;;;23.30;99.90;;;;;;5013712;28;20187;-76
2022/06/27 03:40:07;;;;;;;7.35;6.13;;;23.30;99.90;;;;;;5029922;28;20115;-77
2022/06/27 03:42:38;;;;;;;6.38;5.63;;;23.40;99.90;;;;;;5013417;28;20038;-77
2022/06/27 03:45:06;;;;;;;6.38;5.30;;;23.40;99.90;;;;;;5031162;28;20493;-77
2022/06/27 03:47:46;;;;;;;7.15;5.85;;;23.40;99.90;;;;;;5030104;28;20137;-77
2022/06/27 03:50:36;;;;;;;8.35;6.15;;;23.50;99.90;;;;;;5031017;28;20060;-77
2022/06/27 03:53:04;;;;;;;6.22;5.63;;;23.50;99.90;;;;;;5013252;28;20049;-77
2022/06/27 03:55:35;;;;;;;6.03;5.47;;;23.50;99.90;;;;;;5013192;28;20060;-77
2022/06/27 03:58:06;;;;;;;6.45;5.80;;;23.60;99.90;;;;;;5013270;28;20042;-77
2022/06/27 04:00:38;;;;;;;8.23;5.78;;;23.60;99.90;;;;;;5012442;28;20041;-76
2022/06/27 04:03:09;;;;;;;6.80;5.90;;;23.60;99.90;;;;;;5029788;28;20042;-76
2022/06/27 04:05:56;;;;;;;6.00;5.40;;;23.60;99.90;;;;;;5030667;28;20057;-76
2022/06/27 04:08:24;;;;;;;8.00;5.63;;;23.70;99.90;;;;;;5029794;28;20139;-77
2022/06/27 04:10:52;;;;;;;7.53;5.65;;;23.70;99.90;;;;;;5029436;28;20057;-79
2022/06/27 04:13:25;;;;;;;6.22;5.72;;;23.80;99.90;;;;;;5013324;28;20449;-77
2022/06/27 04:16:21;;;;;;;6.30;5.68;;;23.80;99.90;;;;;;5030952;28;20068;-77
2022/06/27 04:19:25;;;;;;;7.05;5.75;;;23.90;99.90;;;;;;5011943;28;20049;-77
2022/06/27 04:22:12;;;;;;;6.57;5.10;;;24.00;99.90;;;;;;5027219;28;20056;-76
2022/06/27 04:24:59;;;;;;;5.93;5.43;;;24.10;99.90;;;;;;5030170;28;20068;-77
2022/06/27 04:27:44;;;;;;;9.55;6.03;;;24.10;99.90;;;;;;5027423;28;20128;-77
2022/06/27 04:30:16;;;;;;;9.57;6.38;;;24.10;99.90;;;;;;5012702;28;20050;-77
2022/06/27 04:32:44;;;;;;;10.85;6.30;;;24.20;99.90;;;;;;5029752;28;20123;-77
2022/06/27 04:35:13;;;;;;;6.25;5.78;;;24.20;99.90;;;;;;5029651;28;20069;-77
2022/06/27 04:37:42;;;;;;;7.90;6.43;;;24.30;99.90;;;;;;5029213;28;20057;-78
2022/06/27 04:40:29;;;;;;;6.78;6.00;;;24.40;99.90;;;;;;5029209;28;20057;-78
2022/06/27 04:42:58;;;;;;;9.15;6.72;;;24.50;99.90;;;;;;5029559;28;20161;-77
2022/06/27 04:45:28;;;;;;;5.93;5.43;;;24.60;99.90;;;;;;5012782;28;20049;-78
2022/06/27 04:48:07;;;;;;;7.07;6.35;;;24.60;99.90;;;;;;5012787;28;20119;-78
2022/06/27 04:50:36;;;;;;;10.65;6.50;;;24.70;99.90;;;;;;5012853;28;20099;-79
2022/06/27 04:53:33;;;;;;;11.65;6.47;;;24.80;99.90;;;;;;5029487;28;20091;-80
2022/06/27 04:56:37;;;;;;;8.10;6.05;;;24.90;99.90;;;;;;5028087;28;20077;-82
2022/06/27 05:03:31;;;;;;;10.57;6.78;;;25.00;99.90;;;;;;4954797;28;20054;-82
2022/06/27 05:09:29;;;;;;;9.88;6.82;;;25.20;99.90;;;;;;4921069;29;20532;-83
2022/06/27 05:12:07;;;;;;;7.82;6.50;;;25.20;99.90;;;;;;4937144;29;20130;-81
2022/06/27 05:14:35;;;;;;;9.75;6.70;;;25.30;99.90;;;;;;4996588;28;20145;-80
2022/06/27 05:17:05;;;;;;;8.85;6.93;;;25.30;99.90;;;;;;5012749;28;20045;-80
2022/06/27 05:19:34;;;;;;;8.60;6.68;;;25.40;99.90;;;;;;4996684;28;20050;-81
2022/06/27 05:22:04;;;;;;;10.38;7.13;;;25.50;99.90;;;;;;5013005;28;20145;-81
2022/06/27 05:24:49;;;;;;;9.95;6.30;;;25.60;99.90;;;;;;5013202;28;20061;-83
2022/06/27 05:27:17;;;;;;;9.93;6.65;;;25.80;99.90;;;;;;5019603;28;20045;-81
2022/06/27 05:29:45;;;;;;;9.30;6.43;;;26.00;99.90;;;;;;5012707;28;20046;-81
2022/06/27 05:32:13;;;;;;;7.78;6.22;;;26.10;99.90;;;;;;5013894;28;20058;-79
2022/06/27 05:34:41;;;;;;;7.18;6.47;;;26.30;99.90;;;;;;5012667;28;20061;-81
2022/06/27 05:37:10;;;;;;;7.38;6.70;;;26.40;99.90;;;;;;5013749;28;20081;-80
2022/06/27 05:39:40;;;;;;;9.68;7.05;;;26.60;99.90;;;;;;5013467;28;20508;-80
2022/06/27 05:42:07;;;;;;;14.70;6.38;;;26.70;99.90;;;;;;5012851;28;20116;-80
2022/06/27 05:44:35;;;;;;;10.57;6.43;;;27.00;99.90;;;;;;5012400;28;20720;-80
2022/06/27 05:47:04;;;;;;;10.65;6.65;;;27.40;99.90;;;;;;5013865;28;20080;-80
2022/06/27 05:49:46;;;;;;;9.70;6.68;;;27.80;99.90;;;;;;5012260;28;20053;-80
2022/06/27 05:52:16;;;;;;;9.70;6.57;;;28.30;99.90;;;;;;5029261;28;20112;-80
2022/06/27 05:54:44;;;;;;;10.25;6.68;;;28.80;99.90;;;;;;5012395;28;20073;-81
2022/06/27 05:57:12;;;;;;;9.80;6.03;;;29.20;99.90;;;;;;5012105;28;20046;-79
2022/06/27 05:59:41;;;;;;;7.13;5.88;;;29.50;99.90;;;;;;5013096;28;20054;-80
2022/06/27 06:02:09;;;;;;;10.00;6.43;;;29.90;99.90;;;;;;4995948;28;20053;-80
2022/06/27 06:04:40;;;;;;;9.73;6.50;;;30.40;99.90;;;;;;5011979;28;20092;-81
2022/06/27 06:07:12;;;;;;;7.00;5.78;;;30.70;99.90;;;;;;5012280;28;20053;-80
2022/06/27 06:09:41;;;;;;;7.32;5.72;;;31.10;99.90;;;;;;5011896;28;20050;-81
2022/06/27 06:12:09;;;;;;;9.48;5.60;;;31.70;99.90;;;;;;5011802;28;20403;-79
2022/06/27 06:14:39;;;;;;;11.15;6.07;;;32.10;96.50;;;;;;5012266;28;20124;-80
2022/06/27 06:17:06;;;;;;;9.70;5.03;;;32.60;94.80;;;;;;5021933;28;20136;-82
2022/06/27 06:19:33;;;;;;;9.25;5.93;;;33.00;91.40;;;;;;5012139;28;20525;-83
2022/06/27 06:22:05;;;;;;;9.90;5.80;;;33.40;88.30;;;;;;4996567;28;20111;-86
2022/06/27 06:24:32;;;;;;;11.50;5.78;;;33.70;84.60;;;;;;5015605;28;20045;-86
2022/06/27 06:27:01;;;;;;;6.47;5.10;;;34.00;81.50;;;;;;5031826;28;20514;-85
2022/06/27 06:29:29;;;;;;;7.35;6.68;;;34.40;77.90;;;;;;5023267;28;20050;-81
2022/06/27 06:32:01;;;;;;;9.48;5.53;;;34.70;74.80;;;;;;5012787;28;20422;-80
2022/06/27 06:34:29;;;;;;;12.80;5.70;;;35.10;72.70;;;;;;5014427;28;20191;-80
2022/06/27 06:36:57;;;;;;;11.23;5.50;;;35.40;70.80;;;;;;5022212;28;20049;-79
2022/06/27 06:39:26;;;;;;;7.38;5.55;;;35.60;68.80;;;;;;5011348;28;20049;-79
2022/06/27 06:41:54;;;;;;;9.73;5.40;;;35.80;67.20;;;;;;4994995;28;20058;-80
2022/06/27 06:44:24;;;;;;;9.05;5.75;;;36.10;68.10;;;;;;5010984;28;20056;-80
2022/06/27 06:46:52;;;;;;;7.80;5.70;;;36.10;65.10;;;;;;5011057;28;20108;-80
2022/06/27 06:49:26;;;;;;;6.97;5.97;;;36.30;63.20;;;;;;5011117;28;20053;-80
2022/06/27 06:51:54;;;;;;;6.15;5.55;;;36.40;63.00;;;;;;5012145;28;20506;-80
2022/06/27 06:54:22;;;;;;;11.48;5.55;;;36.60;63.00;;;;;;5020165;28;20049;-80
2022/06/27 06:56:49;;;;;;;7.15;5.57;;;36.80;62.90;;;;;;5031926;28;20077;-80
2022/06/27 06:59:17;;;;;;;8.10;5.57;;;36.90;62.80;;;;;;5027146;28;20045;-80
2022/06/27 07:01:47;;;;;;;5.88;5.07;;;37.00;61.60;;;;;;5030325;28;20434;-80
2022/06/27 07:04:15;;;;;;;8.85;5.30;;;37.20;60.40;;;;;;5027289;28;20049;-79
2022/06/27 07:06:42;;;;;;;13.55;5.30;;;37.20;59.70;;;;;;5031735;28;20049;-79
2022/06/27 07:09:10;;;;;;;11.45;5.03;;;37.30;59.30;;;;;;5031862;28;20053;-79
2022/06/27 07:11:40;;;;;;;7.68;5.00;;;37.60;59.40;;;;;;5031654;28;20053;-79
2022/06/27 07:14:08;;;;;;;10.18;5.13;;;37.80;58.30;;;;;;5030135;28;20045;-80
2022/06/27 07:16:36;;;;;;;10.52;4.95;;;38.00;58.10;;;;;;5013337;28;20140;-80
2022/06/27 07:19:08;;;;;;;9.30;5.18;;;38.20;56.50;;;;;;5031261;28;20510;-79
2022/06/27 07:21:36;;;;;;;12.88;5.53;;;38.30;56.30;;;;;;5028967;28;20147;-80
2022/06/27 07:24:05;;;;;;;5.53;4.75;;;38.30;55.50;;;;;;5030169;28;20520;-80
2022/06/27 07:26:33;;;;;;;8.38;5.47;;;38.50;55.30;;;;;;5029042;28;20045;-84
2022/06/27 07:29:04;;;;;;;10.25;5.30;;;38.70;56.40;;;;;;5014177;28;20054;-81
2022/06/27 07:31:32;;;;;;;7.63;5.10;;;39.00;55.40;;;;;;5012016;28;20132;-78
2022/06/27 07:34:02;;;;;;;10.05;5.63;;;39.10;54.80;;;;;;5010252;28;20057;-77
2022/06/27 07:36:32;;;;;;;15.75;5.80;;;39.20;55.50;;;;;;5025058;28;20083;-78
2022/06/27 07:38:59;;;;;;;7.53;4.88;;;39.30;55.30;;;;;;5022536;28;20053;-79
2022/06/27 07:41:30;;;;;;;11.10;4.57;;;39.30;53.60;;;;;;5005277;28;20046;-78
2022/06/27 07:43:57;;;;;;;9.27;5.10;;;39.40;53.40;;;;;;5020365;28;20057;-78
2022/06/27 07:46:27;;;;;;;6.93;4.55;;;39.50;53.80;;;;;;5019574;28;20464;-78
2022/06/27 07:48:54;;;;;;;13.93;5.57;;;39.60;52.70;;;;;;5019456;28;20046;-79
2022/06/27 07:51:27;;;;;;;13.50;4.93;;;39.60;52.30;;;;;;5020990;28;20061;-79
2022/06/27 07:53:59;;;;;;;12.00;5.30;;;39.60;52.70;;;;;;5020072;28;20050;-80
2022/06/27 07:56:27;;;;;;;8.82;4.88;;;39.80;51.90;;;;;;5033692;28;20056;-79
2022/06/27 07:58:54;;;;;;;16.90;5.63;;;40.10;51.70;;;;;;5020223;28;20429;-78
2022/06/27 08:01:23;;;;;;;9.73;5.10;;;40.40;51.20;;;;;;5019966;28;20528;-79
2022/06/27 08:03:51;;;;;;;8.15;4.40;;;40.70;50.30;;;;;;5018519;28;20041;-78
2022/06/27 08:06:21;;;;;;;16.45;5.00;;;40.80;50.90;;;;;;5002601;28;20426;-79
2022/06/27 08:08:50;;;;;;;5.80;4.60;;;40.90;50.70;;;;;;5019298;28;20078;-78
2022/06/27 08:11:22;;;;;;;6.40;4.22;;;41.10;49.00;;;;;;5017975;28;20293;-79
2022/06/27 08:13:51;;;;;;;7.80;4.85;;;41.30;48.30;;;;;;5010640;28;20054;-77
2022/06/27 08:16:20;;;;;;;6.25;4.60;;;41.30;48.20;;;;;;5010626;28;20108;-80
2022/06/27 08:18:48;;;;;;;11.65;5.07;;;41.30;48.90;;;;;;5022367;28;20073;-77
2022/06/27 08:21:19;;;;;;;9.90;4.85;;;41.50;48.00;;;;;;5012721;28;20045;-80
2022/06/27 08:23:48;;;;;;;12.88;4.55;;;41.60;47.60;;;;;;5010876;28;20445;-78
2022/06/27 08:26:16;;;;;;;7.80;4.57;;;41.70;47.50;;;;;;5005205;28;20072;-79
2022/06/27 08:28:47;;;;;;;6.55;4.38;;;42.00;47.40;;;;;;5029521;28;20065;-79
2022/06/27 08:31:15;;;;;;;10.80;4.57;;;42.00;46.80;;;;;;5019824;28;20476;-78
2022/06/27 08:33:44;;;;;;;6.78;4.97;;;42.10;46.70;;;;;;5000072;28;20137;-77
2022/06/27 08:36:12;;;;;;;8.80;4.78;;;42.30;47.00;;;;;;5018484;28;20046;-77
2022/06/27 08:38:45;;;;;;;7.93;4.80;;;42.50;45.80;;;;;;5020429;28;20050;-77
2022/06/27 08:41:14;;;;;;;5.95;4.65;;;42.70;45.40;;;;;;5018864;28;20056;-79
2022/06/27 08:43:41;;;;;;;9.55;4.88;;;42.80;46.70;;;;;;5017976;28;20550;-77
2022/06/27 08:46:15;;;;;;;9.68;4.50;;;43.00;45.60;;;;;;5018925;28;20065;-79
2022/06/27 08:48:43;;;;;;;10.95;4.75;;;43.10;44.50;;;;;;5026400;28;20056;-78
2022/06/27 08:51:10;;;;;;;7.90;4.28;;;43.20;45.40;;;;;;5019691;28;20050;-77
2022/06/27 08:53:38;;;;;;;5.47;4.30;;;43.30;44.90;;;;;;5023163;28;20038;-76
2022/06/27 08:56:09;;;;;;;8.45;4.20;;;43.30;43.60;;;;;;5022969;28;20523;-79
2022/06/27 08:58:36;;;;;;;;;;;43.40;43.40;;;;;;5027762;28;20056;-77
2022/06/27 09:01:05;;;;;;;9.00;4.70;;;43.40;42.60;;;;;;5033318;28;20369;-79
2022/06/27 09:03:35;;;;;;;5.88;4.60;;;43.50;43.00;;;;;;5032335;28;20071;-79
2022/06/27 09:06:05;;;;;;;8.25;4.78;;;43.40;43.10;;;;;;5033781;28;20107;-79
2022/06/27 09:08:36;;;;;;;8.27;4.47;;;43.40;42.10;;;;;;5033933;28;20046;-80
2022/06/27 09:11:05;;;;;;;12.48;4.38;;;43.50;43.40;;;;;;5029442;28;20525;-79
2022/06/27 09:13:32;;;;;;;5.65;4.20;;;43.50;42.70;;;;;;5010534;28;20045;-78
2022/06/27 09:16:01;;;;;;;6.50;5.40;;;43.50;43.40;;;;;;5018442;28;20054;-82
2022/06/27 09:18:30;;;;;;;11.88;5.10;;;43.60;44.10;;;;;;5016868;28;20080;-86
2022/06/27 09:21:01;;;;;;;7.00;4.80;;;43.70;41.80;;;;;;5014451;28;20056;-81
2022/06/27 09:23:40;;;;;;;;;;;43.80;42.90;;;;;;5017837;28;20050;-79
2022/06/27 09:26:14;;;;;;;8.60;4.55;;;43.70;42.10;;;;;;5014067;28;20273;-79
2022/06/27 09:28:48;;;;;;;6.47;4.95;;;43.90;42.20;;;;;;4997949;28;20103;-80
2022/06/27 09:31:35;;;;;;;6.20;4.80;;;44.10;42.10;;;;;;5014416;28;20060;-79
2022/06/27 09:34:08;;;;;;;10.70;6.88;;;44.30;42.00;;;;;;4999022;28;20072;-81
2022/06/27 09:36:39;;;;;;;7.10;4.22;;;44.20;42.00;;;;;;5015317;28;20057;-80
2022/06/27 09:39:10;;;;;;;9.57;4.32;;;44.40;41.80;;;;;;5023803;28;20049;-79
2022/06/27 09:41:41;;;;;;;6.32;4.50;;;44.70;40.70;;;;;;5027971;28;20071;-80
2022/06/27 09:44:11;;;;;;;6.20;4.03;;;44.80;41.60;;;;;;5021033;28;20049;-80
2022/06/27 09:46:42;;;;;;;5.22;4.18;;;44.50;40.80;;;;;;5017628;28;20049;-79
2022/06/27 09:49:14;;;;;;;4.80;4.20;;;44.30;41.30;;;;;;5015675;28;20072;-79
2022/06/27 09:51:43;;;;;;;4.28;3.97;;;44.30;41.30;;;;;;5020913;28;20486;-80
2022/06/27 09:54:11;;;;;;;9.20;4.55;;;44.50;40.30;;;;;;5026467;28;20048;-79
2022/06/27 09:56:42;;;;;;;6.03;4.60;;;44.70;39.80;;;;;;5006855;28;20050;-77
2022/06/27 09:59:12;;;;;;;4.88;4.38;;;44.90;41.60;;;;;;5014902;28;20050;-79
2022/06/27 10:01:41;;;;;;;4.85;4.40;;;44.90;39.70;;;;;;5009181;28;20099;-79
2022/06/27 10:04:10;;;;;;;6.72;4.47;;;45.20;40.10;;;;;;5010922;28;20092;-79
2022/06/27 10:06:41;;;;;;;5.45;4.40;;;45.20;39.60;;;;;;5022735;28;20050;-79
2022/06/27 10:09:12;;;;;;;5.13;4.63;;;45.10;39.70;;;;;;5028770;28;20057;-79
2022/06/27 10:11:40;;;;;;;6.22;5.38;;;45.10;39.40;;;;;;5021920;28;20471;-79
2022/06/27 10:14:19;;;;;;;8.57;4.22;;;45.20;40.10;;;;;;5010494;28;20073;-77
2022/06/27 10:16:58;;;;;;;6.45;4.93;;;45.10;39.20;;;;;;5014294;28;20604;-79
2022/06/27 10:19:27;;;;;;;4.35;3.90;;;45.00;38.60;;;;;;5018918;28;20065;-79
2022/06/27 10:21:56;;;;;;;6.50;4.45;;;45.00;38.90;;;;;;5020018;28;20092;-79
2022/06/27 10:24:42;;;;;;;4.57;4.20;;;45.20;39.20;;;;;;5016931;28;20074;-80
2022/06/27 10:27:30;;;;;;;5.30;4.57;;;45.30;39.30;;;;;;5018580;28;20051;-80
2022/06/27 10:30:09;;;;;;;;;;;45.50;38.60;;;;;;5018991;28;20053;-80
2022/06/27 10:32:43;;;;;;;6.13;4.82;;;45.50;39.40;;;;;;5013980;28;19925;-81
2022/06/27 10:35:12;;;;;;;5.00;4.50;;;45.50;39.60;;;;;;5016089;28;20144;-81
2022/06/27 10:37:41;;;;;;;6.25;4.30;;;45.40;38.30;;;;;;5011750;28;20049;-79
2022/06/27 10:40:51;;;;;;;4.50;4.10;;;45.40;39.10;;;;;;5008944;28;20409;-79
2022/06/27 10:43:46;;;;;;;8.13;4.40;;;45.40;37.80;;;;;;5015128;28;20050;-81
2022/06/27 10:46:45;;;;;;;5.75;5.18;;;45.40;37.40;;;;;;5016678;28;20472;-79
2022/06/27 10:49:26;;;;;;;4.60;4.10;;;45.50;38.40;;;;;;5027453;28;20046;-79
2022/06/27 10:52:11;;;;;;;9.70;4.88;;;45.70;38.70;;;;;;5027570;28;20049;-78
2022/06/27 10:54:42;;;;;;;4.80;4.40;;;45.90;37.80;;;;;;5027014;28;20077;-79
2022/06/27 10:57:11;;;;;;;6.85;4.13;;;45.80;36.60;;;;;;5011381;28;20540;-79
2022/06/27 10:59:57;;;;;;;4.05;3.83;;;45.90;37.20;;;;;;5005977;28;20053;-78
2022/06/27 11:02:29;;;;;;;5.85;4.88;;;46.00;37.00;;;;;;5012356;28;20589;-78
2022/06/27 11:04:58;;;;;;;5.82;3.90;;;46.20;36.30;;;;;;5010277;28;20049;-77
2022/06/27 11:07:26;;;;;;;4.18;3.63;;;46.30;36.00;;;;;;5007382;28;20042;-79
2022/06/27 11:09:54;;;;;;;5.82;4.22;;;46.40;37.60;;;;;;5023313;28;20060;-78
2022/06/27 11:12:30;;;;;;;4.68;3.83;;;46.40;35.90;;;;;;5025050;28;20037;-78
2022/06/27 11:15:07;;;;;;;6.60;3.60;;;46.40;36.80;;;;;;5027179;28;20060;-82
2022/06/27 11:17:42;;;;;;;4.78;3.80;;;46.40;36.80;;;;;;5027854;28;20119;-79
2022/06/27 11:20:23;;;;;;;6.20;3.72;;;46.50;35.00;;;;;;5022410;28;20144;-81
2022/06/27 11:22:55;;;;;;;5.97;3.65;;;46.70;35.80;;;;;;5026946;28;20155;-79
2022/06/27 11:25:24;;;;;;;4.18;3.80;;;46.70;35.60;;;;;;5001544;28;20096;-79
2022/06/27 11:27:54;;;;;;;4.35;4.00;;;46.90;36.90;;;;;;5013449;28;20420;-78
2022/06/27 11:33:23;;;;;;;4.18;3.85;;;47.10;36.00;;;;;;5019294;28;20394;-81
2022/06/27 11:35:51;;;;;;;4.10;3.15;;;47.20;35.40;;;;;;5028338;28;20091;-81
2022/06/27 11:38:24;;;;;;;4.22;3.83;;;47.30;34.40;;;;;;5024112;28;20143;-80
2022/06/27 11:41:02;;;;;;;4.13;3.70;;;47.20;34.40;;;;;;5007641;28;20124;-79
2022/06/27 11:43:49;;;;;;;6.70;3.95;;;47.30;35.40;;;;;;4988228;28;20053;-80
2022/06/27 11:46:32;;;;;;;4.03;3.63;;;47.30;35.20;;;;;;5006594;28;20045;-80
2022/06/27 11:49:07;;;;;;;6.32;3.30;;;47.30;34.30;;;;;;5007174;28;20042;-81
2022/06/27 11:51:37;;;;;;;8.32;3.72;;;47.20;34.70;;;;;;5005300;28;20487;-81
2022/06/27 11:54:09;;;;;;;5.85;4.07;;;46.90;35.30;;;;;;5009675;28;20049;-81
2022/06/27 11:56:39;;;;;;;4.97;3.58;;;46.90;34.60;;;;;;5006342;28;20621;-80
2022/06/27 11:59:08;;;;;;;5.68;3.67;;;47.00;35.10;;;;;;5021382;28;20064;-80
2022/06/27 12:01:51;;;;;;;4.25;3.95;;;47.20;34.80;;;;;;5021542;28;20053;-82
2022/06/27 12:04:20;;;;;;;4.80;3.75;;;47.20;34.10;;;;;;5014192;28;20045;-80
2022/06/27 12:06:54;;;;;;;4.28;3.92;;;47.20;34.40;;;;;;5013907;28;20076;-79
2022/06/27 12:09:23;;;;;;;4.88;4.25;;;47.30;34.30;;;;;;4992440;28;20592;-79
2022/06/27 12:11:52;;;;;;;4.28;3.78;;;47.00;34.50;;;;;;5007260;28;20510;-79
2022/06/27 12:14:20;;;;;;;5.13;3.55;;;47.00;34.90;;;;;;4994220;28;20049;-80
2022/06/27 12:16:51;;;;;;;5.32;3.65;;;47.10;35.40;;;;;;5027872;28;20073;-79
2022/06/27 12:19:19;;;;;;;4.07;3.75;;;47.30;35.30;;;;;;5027452;28;20144;-80
2022/06/27 12:21:47;;;;;;;5.97;4.70;;;47.30;34.10;;;;;;5029870;28;20107;-79
2022/06/27 12:24:16;;;;;;;6.18;3.78;;;47.40;34.10;;;;;;5032401;28;20053;-77
2022/06/27 12:26:43;;;;;;;6.88;3.90;;;47.50;35.20;;;;;;5012575;28;20049;-81
2022/06/27 12:29:11;;;;;;;6.90;3.70;;;47.70;34.70;;;;;;4999862;28;20541;-79
2022/06/27 12:31:41;;;;;;;3.67;3.47;;;47.50;33.40;;;;;;5016242;28;20112;-81
2022/06/27 12:34:10;;;;;;;5.30;3.10;;;47.30;33.30;;;;;;5024404;28;20589;-80
2022/06/27 12:36:39;;;;;;;8.00;3.97;;;47.30;33.50;;;;;;5029062;28;20049;-79
2022/06/27 12:39:08;;;;;;;6.78;3.67;;;47.40;34.40;;;;;;5030076;28;20041;-79
2022/06/27 12:41:35;;;;;;;4.50;4.07;;;47.50;34.70;;;;;;5029958;28;20076;-80
2022/06/27 12:44:03;;;;;;;4.93;3.70;;;47.40;34.60;;;;;;5026433;28;20049;-81
2022/06/27 12:46:31;;;;;;;5.28;3.97;;;47.60;34.30;;;;;;5011083;28;20046;-80
2022/06/27 12:48:58;;;;;;;5.00;3.92;;;47.70;34.40;;;;;;5012152;28;20050;-79
2022/06/27 12:51:29;;;;;;;5.40;3.53;;;47.90;35.10;;;;;;5013712;28;20128;-79
2022/06/27 12:53:57;;;;;;;8.32;5.20;;;47.80;34.70;;;;;;5010059;28;20058;-79
2022/06/27 12:56:25;;;;;;;5.78;4.22;;;47.80;34.10;;;;;;5025989;28;20061;-80
2022/06/27 12:58:52;;;;;;;3.90;3.60;;;47.70;33.60;;;;;;5030749;28;20099;-79
2022/06/27 13:01:20;;;;;;;5.15;3.95;;;47.60;34.00;;;;;;5029311;28;20104;-77
2022/06/27 13:03:47;;;;;;;6.50;3.58;;;47.80;34.10;;;;;;5029201;28;20060;-79
2022/06/27 13:06:15;;;;;;;4.15;3.67;;;47.50;34.70;;;;;;5027957;28;20053;-79
2022/06/27 13:08:44;;;;;;;3.70;3.50;;;47.30;34.70;;;;;;5031508;28;20046;-77
2022/06/27 13:11:11;;;;;;;3.78;3.50;;;47.40;34.40;;;;;;5019217;28;20038;-78
2022/06/27 13:13:38;;;;;;;4.32;3.80;;;47.20;34.00;;;;;;5030162;28;20567;-77
2022/06/27 13:16:08;;;;;;;5.38;3.83;;;47.40;34.50;;;;;;5013736;28;20055;-78
2022/06/27 13:18:36;;;;;;;25.45;6.00;;;47.40;34.20;;;;;;5010194;28;20518;-78
2022/06/27 13:21:03;;;;;;;3.80;3.58;;;47.30;34.50;;;;;;5017000;28;20514;-79